Aérodrome :
LOGIN :

S'inscrire | Disclaimer

   EN    FR    IT 

 










Légende :    VFR   VFR Marginal   IFR   IFR Intensif   IFR Très Intensif
Visi : 
Plafond : 
>= 8 km
>= 3000ft
5 à 8 km
1000 à 3000 ft
1500m à 5 km
500 à 1000 ft
800 à 1500m
200 à 500 ft
< 800m
< 200 ft
Symboles :   Orages  Brouillard  Fortes neiges  Fortes précipitations  Vent > 20 kt
SIGMETs :   Divers  Orages  Givrage  Turbulence  Onde Orograph.  Cendres Volcan.






- Altitude de l'aérodrome : 325 ft
- Code IATA : BES


LFRB - Brest

DERNIER METAR :
  • 171800Z AUTO 00000KT 9999 BKN038 OVC190 05/04 Q1030 NOSIG

METARs EXPIRÉS :
  • 171730Z AUTO 36001KT 9999 FEW038 SCT210 06/04 Q1030 NOSIG
  • 171700Z AUTO 03002KT 9999 FEW041 SCT210 07/04 Q1030 NOSIG
  • 171630Z AUTO 01002KT 9999 SCT041 08/04 Q1029 NOSIG
  • 171600Z AUTO 35003KT 9999 SCT026 OVC038 09/05 Q1029 NOSIG

TAF TAF LFRB
Valide du 17 à 18h jusqu'au 19 à 00h UTC


171700Z 1718/1824 VRB03KT 9999 SCT030
PROB30
TEMPO 1722/1807 3000 BR
BECMG 1810/1812 20010KT 5000 RA BKN012
TEMPO 1812/1824 3000 RA OVC004
TEMPO 1816/1818 22015G25KT
BECMG 1818/1820 21015G30KT
ATIS : +33 2 98 32 02 71



MET'MAP, la Météo Aéronautique d'un coup d'oeil ! - Copyright ORBIFLY Décembre 2007 - Disclaimer

ORBIFLY MET'MAP TEAM :

Programmation & Développement : Alexandra Zaïnal
Sur une idée originale de : Baudouin d'Aumeries
Assistance à la programmation : Marc-Olivier Méhu
Soutien technique & logistique : Manuel Goepfert

Contact : metmap@orbifly.com




SOURCES & CREDITS :

   NOAA